createdAt,value
2023-11-09T00:00:05.293Z,99340.00
2023-11-09T00:02:32.589Z,99338.00
2023-11-09T00:05:00.523Z,99332.00
2023-11-09T00:07:27.937Z,99339.00
2023-11-09T00:09:55.414Z,99331.00
2023-11-09T00:12:24.460Z,99325.00
2023-11-09T00:14:51.983Z,99321.00
2023-11-09T00:17:21.474Z,99326.00
2023-11-09T00:19:49.022Z,99312.00
2023-11-09T00:22:16.662Z,99313.00
2023-11-09T00:24:44.298Z,99307.00
2023-11-09T00:27:22.344Z,99297.00
2023-11-09T00:29:49.815Z,99289.00
2023-11-09T00:32:17.687Z,99283.00
2023-11-09T00:34:50.044Z,99278.00
2023-11-09T00:37:17.546Z,99281.00
2023-11-09T00:39:46.507Z,99272.00
2023-11-09T00:42:14.101Z,99270.00
2023-11-09T00:44:42.642Z,99259.00
2023-11-09T00:47:12.620Z,99265.00
2023-11-09T00:49:39.935Z,99258.00
2023-11-09T00:52:07.446Z,99260.00
2023-11-09T00:54:34.984Z,99267.00
2023-11-09T00:57:02.417Z,99261.00
2023-11-09T00:59:29.855Z,99256.00
2023-11-09T01:01:57.286Z,99262.00
2023-11-09T01:04:26.447Z,99255.00
2023-11-09T01:06:54.647Z,99254.00
2023-11-09T01:09:21.930Z,99250.00
2023-11-09T01:11:50.256Z,99247.00
2023-11-09T01:14:21.538Z,99243.00
2023-11-09T01:16:49.800Z,99246.00
2023-11-09T01:19:17.277Z,99242.00
2023-11-09T01:21:44.783Z,99237.00
2023-11-09T01:24:12.357Z,99238.00
2023-11-09T01:26:39.858Z,99234.00
2023-11-09T01:29:07.959Z,99231.00
2023-11-09T01:31:35.902Z,99230.00
2023-11-09T01:34:10.185Z,99224.00
2023-11-09T01:36:40.515Z,99228.00
2023-11-09T01:39:08.174Z,99216.00
2023-11-09T01:41:35.609Z,99219.00
2023-11-09T01:44:03.404Z,99217.00
2023-11-09T01:46:31.287Z,99199.00
2023-11-09T01:49:00.521Z,99212.00
2023-11-09T01:51:29.532Z,99199.00
2023-11-09T01:53:57.084Z,99196.00
2023-11-09T01:56:26.332Z,99198.00
2023-11-09T01:58:54.175Z,99182.00
2023-11-09T02:01:22.837Z,99183.00
2023-11-09T02:03:50.433Z,99182.00
2023-11-09T02:06:19.780Z,99182.00
2023-11-09T02:08:48.872Z,99177.00
2023-11-09T02:11:16.576Z,99174.00
2023-11-09T02:13:43.934Z,99169.00
2023-11-09T02:16:11.312Z,99162.00
2023-11-09T02:18:38.714Z,99157.00
2023-11-09T02:21:06.451Z,99154.00
2023-11-09T02:23:35.203Z,99147.00
2023-11-09T02:26:02.889Z,99139.00
2023-11-09T02:28:33.532Z,99143.00
2023-11-09T02:31:00.961Z,99138.00
2023-11-09T02:33:28.501Z,99140.00
2023-11-09T02:35:55.969Z,99126.00
2023-11-09T02:38:24.056Z,99127.00
2023-11-09T02:40:52.085Z,99120.00
2023-11-09T02:43:19.786Z,99115.00
2023-11-09T02:45:47.285Z,99116.00
2023-11-09T02:48:14.809Z,99112.00
2023-11-09T02:50:42.186Z,99113.00
2023-11-09T02:53:09.898Z,99088.00
2023-11-09T02:55:37.807Z,99092.00
2023-11-09T02:58:07.297Z,99077.00
2023-11-09T03:00:37.533Z,99079.00
2023-11-09T03:03:05.846Z,99068.00
2023-11-09T03:05:33.461Z,99063.00
2023-11-09T03:08:00.887Z,99058.00
2023-11-09T03:10:28.310Z,99059.00
2023-11-09T03:12:56.576Z,99059.00
2023-11-09T03:15:23.943Z,99062.00
2023-11-09T03:17:51.494Z,99070.00
2023-11-09T03:20:19.225Z,99066.00
2023-11-09T03:22:46.896Z,99065.00
2023-11-09T03:25:15.037Z,99066.00
2023-11-09T03:27:42.529Z,99057.00
2023-11-09T03:30:12.162Z,99060.00
2023-11-09T03:32:39.665Z,99056.00
2023-11-09T03:35:08.209Z,99056.00
2023-11-09T03:37:36.992Z,99058.00
2023-11-09T03:40:07.544Z,99052.00
2023-11-09T03:42:35.045Z,99049.00
2023-11-09T03:45:02.825Z,99039.00
2023-11-09T03:47:30.298Z,99037.00
2023-11-09T03:49:57.916Z,99036.00
2023-11-09T03:52:28.666Z,99040.00
2023-11-09T03:54:56.756Z,99039.00
2023-11-09T03:57:24.408Z,99038.00
2023-11-09T03:59:51.911Z,99027.00
2023-11-09T04:02:19.434Z,99033.00
2023-11-09T04:04:48.165Z,99021.00
2023-11-09T04:07:15.775Z,99022.00
2023-11-09T04:09:43.486Z,99029.00
2023-11-09T04:12:11.052Z,99017.00
2023-11-09T04:14:38.308Z,99018.00
2023-11-09T04:17:05.781Z,99018.00
2023-11-09T04:19:33.340Z,99012.00
2023-11-09T04:22:00.622Z,99005.00
2023-11-09T04:24:27.972Z,99006.00
2023-11-09T04:26:57.815Z,99009.00
2023-11-09T04:29:25.763Z,99002.00
2023-11-09T04:31:53.087Z,99005.00
2023-11-09T04:34:21.166Z,99010.00
2023-11-09T04:36:51.540Z,99015.00
2023-11-09T04:39:29.674Z,99001.00
2023-11-09T04:42:01.560Z,99000.00
2023-11-09T04:44:30.349Z,99000.00
2023-11-09T04:46:59.470Z,98991.00
2023-11-09T04:49:29.005Z,98983.00
2023-11-09T04:52:04.304Z,98992.00
2023-11-09T04:54:46.130Z,98980.00
2023-11-09T04:57:34.003Z,98982.00
2023-11-09T05:00:01.576Z,98979.00
2023-11-09T05:05:58.391Z,98973.00
2023-11-09T05:08:25.747Z,98972.00
2023-11-09T05:10:54.394Z,98968.00
2023-11-09T05:13:21.849Z,98973.00
2023-11-09T05:15:50.079Z,98959.00
2023-11-09T05:18:18.069Z,98966.00
2023-11-09T05:20:45.442Z,98964.00
2023-11-09T05:23:12.680Z,98954.00
2023-11-09T05:25:42.896Z,98953.00
2023-11-09T05:28:10.303Z,98954.00
2023-11-09T05:30:37.736Z,98949.00
2023-11-09T05:33:05.766Z,98941.00
2023-11-09T05:35:33.453Z,98933.00
2023-11-09T05:38:00.922Z,98939.00
2023-11-09T05:40:28.674Z,98932.00
2023-11-09T05:42:56.442Z,98934.00
2023-11-09T05:45:23.917Z,98929.00
2023-11-09T05:47:52.485Z,98920.00
2023-11-09T05:50:20.217Z,98916.00
2023-11-09T05:52:47.790Z,98913.00
2023-11-09T05:55:15.410Z,98913.00
2023-11-09T05:57:42.852Z,98905.00
2023-11-09T06:00:12.286Z,98905.00
2023-11-09T06:02:39.555Z,98905.00
2023-11-09T06:05:07.212Z,98896.00
2023-11-09T06:07:35.703Z,98900.00
2023-11-09T06:10:04.752Z,98908.00
2023-11-09T06:12:32.067Z,98900.00
2023-11-09T06:14:59.408Z,98903.00
2023-11-09T06:17:26.734Z,98902.00
2023-11-09T06:19:54.344Z,98899.00
2023-11-09T06:22:21.579Z,98903.00
2023-11-09T06:24:49.238Z,98917.00
2023-11-09T06:27:19.138Z,98920.00
2023-11-09T06:29:47.675Z,98919.00
2023-11-09T06:32:15.050Z,98919.00
2023-11-09T06:34:43.583Z,98926.00
2023-11-09T06:37:11.173Z,98936.00
2023-11-09T06:39:38.868Z,98930.00
2023-11-09T06:42:12.223Z,98932.00
2023-11-09T06:44:40.697Z,98935.00
2023-11-09T06:47:08.103Z,98933.00
2023-11-09T06:49:35.518Z,98930.00
2023-11-09T06:52:03.403Z,98927.00
2023-11-09T06:54:31.148Z,98930.00
2023-11-09T06:56:58.612Z,98930.00
2023-11-09T06:59:26.147Z,98928.00
2023-11-09T07:01:54.687Z,98932.00
2023-11-09T07:04:25.023Z,98927.00
2023-11-09T07:06:52.470Z,98920.00
2023-11-09T07:09:20.216Z,98916.00
2023-11-09T07:11:49.679Z,98918.00
2023-11-09T07:14:17.044Z,98916.00
2023-11-09T07:16:44.965Z,98910.00
2023-11-09T07:19:13.425Z,98914.00
2023-11-09T07:21:41.040Z,98923.00
2023-11-09T07:24:09.472Z,98916.00
2023-11-09T07:26:36.697Z,98908.00
2023-11-09T07:29:04.608Z,98915.00
2023-11-09T07:31:31.993Z,98924.00
2023-11-09T07:33:59.257Z,98920.00
2023-11-09T07:36:26.585Z,98915.00
2023-11-09T07:38:56.557Z,98917.00
2023-11-09T07:41:28.307Z,98909.00
2023-11-09T07:43:56.446Z,98910.00
2023-11-09T07:46:23.944Z,98902.00
2023-11-09T07:48:51.463Z,98901.00
2023-11-09T07:51:24.955Z,98907.00
2023-11-09T07:53:53.015Z,98907.00
2023-11-09T07:56:20.426Z,98911.00
2023-11-09T07:58:48.168Z,98899.00
2023-11-09T08:01:15.727Z,98895.00
2023-11-09T08:03:43.363Z,98888.00
2023-11-09T08:06:10.761Z,98880.00
2023-11-09T08:08:39.288Z,98885.00
2023-11-09T08:11:06.554Z,98878.00
2023-11-09T08:13:34.688Z,98884.00
2023-11-09T08:16:02.082Z,98883.00
2023-11-09T08:18:29.595Z,98889.00
2023-11-09T08:20:57.430Z,98887.00
2023-11-09T08:23:25.192Z,98895.00
2023-11-09T08:25:54.575Z,98893.00
2023-11-09T08:28:22.119Z,98889.00
2023-11-09T08:30:51.561Z,98890.00
2023-11-09T08:33:23.547Z,98880.00
2023-11-09T08:35:55.048Z,98883.00
2023-11-09T08:38:23.520Z,98887.00
2023-11-09T08:40:52.614Z,98889.00
2023-11-09T08:43:20.164Z,98883.00
2023-11-09T08:45:48.112Z,98892.00
2023-11-09T08:48:15.415Z,98893.00
2023-11-09T08:50:43.579Z,98900.00
2023-11-09T08:53:10.954Z,98895.00
2023-11-09T08:55:41.611Z,98900.00
2023-11-09T08:58:08.892Z,98899.00
2023-11-09T09:00:36.265Z,98901.00
2023-11-09T09:03:03.572Z,98892.00
2023-11-09T09:05:32.508Z,98904.00
2023-11-09T09:08:03.183Z,98894.00
2023-11-09T09:10:32.771Z,98902.00
2023-11-09T09:13:03.876Z,98895.00
2023-11-09T09:15:31.325Z,98903.00
2023-11-09T09:18:00.393Z,98911.00
2023-11-09T09:20:29.676Z,98906.00
2023-11-09T09:23:01.241Z,98903.00
2023-11-09T09:25:31.997Z,98917.00
2023-11-09T09:28:00.568Z,98909.00
2023-11-09T09:30:28.467Z,98915.00
2023-11-09T09:33:00.935Z,98904.00
2023-11-09T09:35:38.694Z,98901.00
2023-11-09T09:38:13.213Z,98901.00
2023-11-09T09:40:47.966Z,98915.00
2023-11-09T09:43:21.266Z,98902.00
2023-11-09T09:45:58.479Z,98897.00
2023-11-09T09:48:29.169Z,98899.00
2023-11-09T09:51:00.116Z,98896.00
2023-11-09T09:53:28.658Z,98895.00
2023-11-09T09:55:57.992Z,98891.00
2023-11-09T09:58:25.430Z,98900.00
2023-11-09T10:00:58.513Z,98896.00
2023-11-09T10:03:29.645Z,98896.00
2023-11-09T10:05:57.340Z,98898.00
2023-11-09T10:08:25.511Z,98905.00
2023-11-09T10:10:55.484Z,98899.00
2023-11-09T10:13:25.929Z,98899.00
2023-11-09T10:15:58.900Z,98902.00
2023-11-09T10:18:31.626Z,98896.00
2023-11-09T10:21:02.711Z,98898.00
2023-11-09T10:23:30.284Z,98899.00
2023-11-09T10:25:58.821Z,98899.00
2023-11-09T10:28:35.457Z,98887.00
2023-11-09T10:31:03.067Z,98888.00
2023-11-09T10:33:35.249Z,98892.00
2023-11-09T10:36:06.437Z,98891.00
2023-11-09T10:38:34.932Z,98872.00
2023-11-09T10:41:15.613Z,98869.00
2023-11-09T10:43:51.906Z,98858.00
2023-11-09T10:46:21.248Z,98852.00
2023-11-09T10:48:52.163Z,98859.00
2023-11-09T10:51:22.348Z,98866.00
2023-11-09T10:53:50.791Z,98860.00
2023-11-09T10:56:18.709Z,98851.00
2023-11-09T10:58:47.357Z,98860.00
2023-11-09T11:01:27.758Z,98854.00
2023-11-09T11:03:59.217Z,98858.00
2023-11-09T11:06:44.196Z,98863.00
2023-11-09T11:09:20.210Z,98866.00
2023-11-09T11:11:50.972Z,98866.00
2023-11-09T11:14:24.594Z,98866.00
2023-11-09T11:17:12.730Z,98856.00
2023-11-09T11:20:01.260Z,98864.00
2023-11-09T11:23:17.109Z,98851.00
2023-11-09T11:26:12.131Z,98850.00
2023-11-09T11:28:44.305Z,98852.00
2023-11-09T11:31:14.860Z,98852.00
2023-11-09T11:33:42.904Z,98864.00
2023-11-09T11:36:28.172Z,98851.00
2023-11-09T11:39:22.305Z,98855.00
2023-11-09T11:41:52.755Z,98855.00
2023-11-09T11:44:26.643Z,98853.00
2023-11-09T11:46:59.586Z,98850.00
2023-11-09T11:49:27.723Z,98851.00
2023-11-09T11:51:59.277Z,98852.00
2023-11-09T11:54:29.732Z,98847.00
2023-11-09T11:56:57.386Z,98835.00
2023-11-09T11:59:24.662Z,98847.00
2023-11-09T12:01:52.505Z,98845.00
2023-11-09T12:04:20.151Z,98845.00
2023-11-09T12:06:50.195Z,98844.00
2023-11-09T12:09:20.050Z,98834.00
2023-11-09T12:11:51.758Z,98841.00
2023-11-09T12:14:21.207Z,98846.00
2023-11-09T12:16:50.205Z,98839.00
2023-11-09T12:19:19.859Z,98839.00
2023-11-09T12:21:48.370Z,98838.00
2023-11-09T12:24:24.852Z,98849.00
2023-11-09T12:27:12.392Z,98849.00
2023-11-09T12:29:43.575Z,98852.00
2023-11-09T12:32:13.433Z,98858.00
2023-11-09T12:34:44.593Z,98857.00
2023-11-09T12:37:15.866Z,98853.00
2023-11-09T12:39:44.844Z,98856.00
2023-11-09T12:42:24.321Z,98850.00
2023-11-09T12:44:54.562Z,98846.00
2023-11-09T12:47:23.028Z,98850.00
2023-11-09T12:49:55.042Z,98838.00
2023-11-09T12:52:28.262Z,98835.00
2023-11-09T12:54:57.546Z,98835.00
2023-11-09T12:57:26.329Z,98839.00
2023-11-09T12:59:57.721Z,98838.00
2023-11-09T13:02:41.683Z,98828.00
2023-11-09T13:05:11.184Z,98826.00
2023-11-09T13:07:38.403Z,98829.00
2023-11-09T13:10:23.275Z,98825.00
2023-11-09T13:12:55.862Z,98822.00
2023-11-09T13:15:43.113Z,98831.00
2023-11-09T13:18:14.071Z,98830.00
2023-11-09T13:20:42.485Z,98830.00
2023-11-09T13:23:12.647Z,98837.00
2023-11-09T13:25:50.950Z,98841.00
2023-11-09T13:28:19.385Z,98829.00
2023-11-09T13:30:55.642Z,98824.00
2023-11-09T13:33:31.539Z,98826.00
2023-11-09T13:36:11.607Z,98832.00
2023-11-09T13:39:13.258Z,98831.00
2023-11-09T13:41:44.091Z,98836.00
2023-11-09T13:44:17.815Z,98832.00
2023-11-09T13:46:45.540Z,98835.00
2023-11-09T13:49:18.129Z,98826.00
2023-11-09T13:52:03.516Z,98833.00
2023-11-09T13:54:44.610Z,98831.00
2023-11-09T13:57:14.990Z,98836.00
2023-11-09T13:59:55.812Z,98835.00
2023-11-09T14:02:31.592Z,98836.00
2023-11-09T14:05:09.105Z,98825.00
2023-11-09T14:07:43.379Z,98818.00
2023-11-09T14:10:16.157Z,98823.00
2023-11-09T14:12:44.969Z,98818.00
2023-11-09T14:15:24.807Z,98822.00
2023-11-09T14:18:24.290Z,98819.00
2023-11-09T14:20:55.106Z,98820.00
2023-11-09T14:23:25.819Z,98819.00
2023-11-09T14:25:55.393Z,98811.00
2023-11-09T14:28:23.343Z,98818.00
2023-11-09T14:30:52.225Z,98809.00
2023-11-09T14:33:27.451Z,98806.00
2023-11-09T14:35:59.948Z,98793.00
2023-11-09T14:38:28.933Z,98801.00
2023-11-09T14:40:59.115Z,98793.00
2023-11-09T14:43:27.603Z,98787.00
2023-11-09T14:45:55.230Z,98781.00
2023-11-09T14:48:26.287Z,98792.00
2023-11-09T14:50:57.460Z,98784.00
2023-11-09T14:53:33.874Z,98791.00
2023-11-09T14:56:07.894Z,98807.00
2023-11-09T14:58:35.765Z,98791.00
2023-11-09T15:01:05.590Z,98798.00
2023-11-09T15:03:35.389Z,98779.00
2023-11-09T15:06:14.718Z,98774.00
2023-11-09T15:08:42.443Z,98777.00
2023-11-09T15:11:16.046Z,98777.00
2023-11-09T15:13:48.699Z,98791.00
2023-11-09T15:16:21.051Z,98792.00
2023-11-09T15:18:52.395Z,98792.00
2023-11-09T15:21:22.812Z,98796.00
2023-11-09T15:23:50.472Z,98793.00
2023-11-09T15:26:18.762Z,98799.00
2023-11-09T15:28:46.113Z,98801.00
2023-11-09T15:31:14.258Z,98791.00
2023-11-09T15:33:41.916Z,98786.00
2023-11-09T15:36:09.353Z,98781.00
2023-11-09T15:38:38.803Z,98781.00
2023-11-09T15:41:18.647Z,98784.00
2023-11-09T15:43:51.396Z,98776.00
2023-11-09T15:46:18.704Z,98771.00
2023-11-09T15:48:47.604Z,98779.00
2023-11-09T15:51:17.857Z,98777.00
2023-11-09T15:53:45.375Z,98776.00
2023-11-09T15:56:17.091Z,98776.00
2023-11-09T15:58:49.886Z,98779.00
2023-11-09T16:01:18.591Z,98777.00
2023-11-09T16:03:46.719Z,98774.00
2023-11-09T16:06:14.654Z,98769.00
2023-11-09T16:08:42.401Z,98773.00
2023-11-09T16:11:10.920Z,98767.00
2023-11-09T16:13:39.474Z,98779.00
2023-11-09T16:16:07.277Z,98771.00
2023-11-09T16:18:35.253Z,98774.00
2023-11-09T16:21:03.052Z,98766.00
2023-11-09T16:23:32.957Z,98758.00
2023-11-09T16:26:01.427Z,98747.00
2023-11-09T16:28:32.662Z,98752.00
2023-11-09T16:31:07.814Z,98761.00
2023-11-09T16:33:35.909Z,98745.00
2023-11-09T16:36:03.329Z,98756.00
2023-11-09T16:38:30.766Z,98741.00
2023-11-09T16:40:58.229Z,98749.00
2023-11-09T16:43:26.000Z,98747.00
2023-11-09T16:45:56.811Z,98747.00
2023-11-09T16:48:25.113Z,98750.00
2023-11-09T16:50:52.498Z,98744.00
2023-11-09T16:53:20.715Z,98736.00
2023-11-09T16:55:48.336Z,98743.00
2023-11-09T16:58:16.078Z,98748.00
2023-11-09T17:00:45.116Z,98738.00
2023-11-09T17:03:12.610Z,98743.00
2023-11-09T17:05:41.066Z,98745.00
2023-11-09T17:08:10.491Z,98748.00
2023-11-09T17:10:40.714Z,98749.00
2023-11-09T17:13:11.932Z,98753.00
2023-11-09T17:15:39.583Z,98749.00
2023-11-09T17:18:12.792Z,98747.00
2023-11-09T17:20:40.317Z,98745.00
2023-11-09T17:23:08.206Z,98743.00
2023-11-09T17:25:36.049Z,98745.00
2023-11-09T17:28:04.219Z,98750.00
2023-11-09T17:30:32.247Z,98744.00
2023-11-09T17:33:01.554Z,98744.00
2023-11-09T17:35:29.858Z,98741.00
2023-11-09T17:37:57.378Z,98735.00
2023-11-09T17:40:24.849Z,98738.00
2023-11-09T17:42:52.335Z,98733.00
2023-11-09T17:45:19.797Z,98722.00
2023-11-09T17:47:48.417Z,98722.00
2023-11-09T17:50:18.381Z,98731.00
2023-11-09T17:52:48.628Z,98728.00
2023-11-09T17:55:16.816Z,98735.00
2023-11-09T17:57:48.773Z,98739.00
2023-11-09T18:00:17.563Z,98738.00
2023-11-09T18:02:46.729Z,98736.00
2023-11-09T18:05:15.487Z,98741.00
2023-11-09T18:07:43.032Z,98739.00
2023-11-09T18:10:12.862Z,98736.00
2023-11-09T18:12:43.224Z,98730.00
2023-11-09T18:15:12.358Z,98724.00
2023-11-09T18:17:39.903Z,98712.00
2023-11-09T18:20:10.444Z,98712.00
2023-11-09T18:22:40.740Z,98701.00
2023-11-09T18:25:10.741Z,98711.00
2023-11-09T18:27:40.550Z,98704.00
2023-11-09T18:30:10.675Z,98699.00
2023-11-09T18:32:38.402Z,98700.00
2023-11-09T18:35:08.164Z,98699.00
2023-11-09T18:37:35.998Z,98692.00
2023-11-09T18:40:05.459Z,98692.00
2023-11-09T18:42:32.823Z,98682.00
2023-11-09T18:45:00.399Z,98687.00
2023-11-09T18:47:29.386Z,98681.00
2023-11-09T18:52:30.270Z,98682.00
2023-11-09T18:54:58.009Z,98677.00
2023-11-09T18:57:26.279Z,98679.00
2023-11-09T18:59:53.944Z,98675.00
2023-11-09T19:02:21.923Z,98676.00
2023-11-09T19:04:52.680Z,98682.00
2023-11-09T19:07:20.515Z,98691.00
2023-11-09T19:09:50.218Z,98694.00
2023-11-09T19:12:18.689Z,98695.00
2023-11-09T19:14:46.469Z,98700.00
2023-11-09T19:17:13.763Z,98700.00
2023-11-09T19:19:41.119Z,98692.00
2023-11-09T19:24:38.991Z,98697.00
2023-11-09T19:27:07.506Z,98694.00
2023-11-09T19:29:35.153Z,98693.00
2023-11-09T19:32:05.964Z,98697.00
2023-11-09T19:34:34.569Z,98693.00
2023-11-09T19:37:02.952Z,98700.00
2023-11-09T19:39:30.640Z,98693.00
2023-11-09T19:41:58.762Z,98694.00
2023-11-09T19:44:26.566Z,98696.00
2023-11-09T19:46:54.446Z,98688.00
2023-11-09T19:49:21.982Z,98685.00
2023-11-09T19:51:49.589Z,98671.00
2023-11-09T19:54:17.695Z,98672.00
2023-11-09T19:56:45.056Z,98672.00
2023-11-09T19:59:12.653Z,98676.00
2023-11-09T20:01:41.124Z,98673.00
2023-11-09T20:04:09.091Z,98670.00
2023-11-09T20:06:36.561Z,98677.00
2023-11-09T20:09:05.806Z,98674.00
2023-11-09T20:11:33.564Z,98668.00
2023-11-09T20:14:02.120Z,98670.00
2023-11-09T20:16:31.054Z,98662.00
2023-11-09T20:18:58.791Z,98668.00
2023-11-09T20:21:26.410Z,98676.00
2023-11-09T20:23:53.693Z,98673.00
2023-11-09T20:26:21.556Z,98684.00
2023-11-09T20:28:51.619Z,98676.00
2023-11-09T20:31:19.550Z,98672.00
2023-11-09T20:33:47.923Z,98677.00
2023-11-09T20:36:15.655Z,98676.00
2023-11-09T20:38:43.149Z,98664.00
2023-11-09T20:41:10.417Z,98667.00
2023-11-09T20:43:40.192Z,98682.00
2023-11-09T20:46:10.763Z,98675.00
2023-11-09T20:48:38.121Z,98676.00
2023-11-09T20:51:09.253Z,98686.00
2023-11-09T20:53:37.077Z,98686.00
2023-11-09T20:56:05.988Z,98678.00
2023-11-09T20:58:33.325Z,98680.00
2023-11-09T21:01:01.021Z,98673.00
2023-11-09T21:03:34.078Z,98668.00
2023-11-09T21:06:02.240Z,98674.00
2023-11-09T21:08:29.658Z,98677.00
2023-11-09T21:10:57.224Z,98667.00
2023-11-09T21:13:24.992Z,98661.00
2023-11-09T21:15:53.046Z,98659.00
2023-11-09T21:18:21.586Z,98656.00
2023-11-09T21:20:49.304Z,98652.00
2023-11-09T21:23:17.692Z,98647.00
2023-11-09T21:25:48.506Z,98656.00
2023-11-09T21:28:16.358Z,98652.00
2023-11-09T21:30:43.901Z,98644.00
2023-11-09T21:33:11.519Z,98648.00
2023-11-09T21:35:38.886Z,98645.00
2023-11-09T21:38:06.380Z,98642.00
2023-11-09T21:40:34.104Z,98644.00
2023-11-09T21:43:01.571Z,98641.00
2023-11-09T21:45:30.960Z,98647.00
2023-11-09T21:47:58.613Z,98635.00
2023-11-09T21:50:26.100Z,98629.00
2023-11-09T21:52:53.563Z,98627.00
2023-11-09T21:55:23.744Z,98617.00
2023-11-09T21:57:53.273Z,98608.00
2023-11-09T22:00:21.003Z,98616.00
2023-11-09T22:02:49.088Z,98599.00
2023-11-09T22:05:17.789Z,98597.00
2023-11-09T22:07:45.777Z,98598.00
2023-11-09T22:10:14.100Z,98579.00
2023-11-09T22:12:41.955Z,98568.00
2023-11-09T22:15:15.801Z,98553.00
2023-11-09T22:17:43.952Z,98563.00
2023-11-09T22:20:13.060Z,98564.00
2023-11-09T22:22:40.909Z,98568.00
2023-11-09T22:25:08.797Z,98572.00
2023-11-09T22:27:36.296Z,98554.00
2023-11-09T22:30:04.264Z,98566.00
2023-11-09T22:32:31.668Z,98549.00
2023-11-09T22:34:59.119Z,98536.00
2023-11-09T22:37:26.675Z,98542.00
2023-11-09T22:39:54.106Z,98521.00
2023-11-09T22:42:21.598Z,98537.00
2023-11-09T22:44:49.150Z,98530.00
2023-11-09T22:47:16.636Z,98521.00
2023-11-09T22:49:44.244Z,98516.00
2023-11-09T22:52:11.582Z,98522.00
2023-11-09T22:54:39.300Z,98520.00
2023-11-09T22:57:07.543Z,98510.00
2023-11-09T22:59:35.029Z,98504.00
2023-11-09T23:02:02.534Z,98503.00
2023-11-09T23:04:31.890Z,98499.00
2023-11-09T23:06:59.577Z,98515.00
2023-11-09T23:09:27.749Z,98516.00
2023-11-09T23:11:55.122Z,98510.00
2023-11-09T23:14:22.453Z,98500.00
2023-11-09T23:16:49.997Z,98495.00
2023-11-09T23:19:17.277Z,98492.00
2023-11-09T23:21:45.005Z,98493.00
2023-11-09T23:24:12.568Z,98494.00
2023-11-09T23:26:40.313Z,98490.00
2023-11-09T23:29:07.620Z,98487.00
2023-11-09T23:31:35.102Z,98475.00
2023-11-09T23:34:04.687Z,98481.00
2023-11-09T23:36:32.273Z,98479.00
2023-11-09T23:38:59.963Z,98473.00
2023-11-09T23:41:27.459Z,98475.00
2023-11-09T23:43:55.038Z,98472.00
2023-11-09T23:46:22.730Z,98466.00
2023-11-09T23:48:50.301Z,98457.00
2023-11-09T23:51:24.164Z,98452.00
2023-11-09T23:53:51.772Z,98461.00
2023-11-09T23:56:19.245Z,98464.00
2023-11-09T23:58:47.196Z,98460.00
